createdAt,value
2017-04-04T00:00:09.701Z,78.90
2017-04-04T00:01:08.200Z,78.50
2017-04-04T00:02:07.477Z,78.70
2017-04-04T00:03:07.017Z,78.50
2017-04-04T00:04:06.272Z,79.40
2017-04-04T00:05:05.524Z,79.20
2017-04-04T00:06:04.789Z,79.30
2017-04-04T00:07:04.109Z,79.10
2017-04-04T00:08:03.350Z,79.30
2017-04-04T00:09:02.200Z,79.30
2017-04-04T00:10:00.684Z,79.00
2017-04-04T00:11:00.670Z,80.10
2017-04-04T00:11:59.184Z,79.50
2017-04-04T00:12:58.433Z,79.10
2017-04-04T00:13:56.958Z,79.10
2017-04-04T00:14:55.723Z,79.00
2017-04-04T00:15:54.966Z,79.70
2017-04-04T00:16:53.457Z,79.70
2017-04-04T00:17:52.709Z,79.70
2017-04-04T00:18:52.702Z,79.60
2017-04-04T00:19:51.944Z,79.60
2017-04-04T00:20:51.000Z,79.50
2017-04-04T00:21:50.284Z,80.30
2017-04-04T00:22:49.551Z,79.90
2017-04-04T00:23:48.008Z,79.80
2017-04-04T00:24:46.486Z,80.00
2017-04-04T00:25:45.049Z,79.80
2017-04-04T00:26:44.599Z,79.90
2017-04-04T00:27:43.128Z,79.80
2017-04-04T00:28:41.588Z,79.60
2017-04-04T00:29:40.137Z,80.00
2017-04-04T00:30:38.608Z,80.10
2017-04-04T00:31:37.093Z,80.30
2017-04-04T00:32:35.904Z,80.10
2017-04-04T00:33:34.384Z,80.60
2017-04-04T00:34:32.898Z,81.20
2017-04-04T00:35:32.129Z,80.60
2017-04-04T00:36:30.624Z,80.50
2017-04-04T00:37:29.864Z,80.90
2017-04-04T00:38:28.749Z,80.80
2017-04-04T00:39:27.216Z,81.00
2017-04-04T00:40:25.671Z,80.90
2017-04-04T00:41:24.172Z,80.80
2017-04-04T00:42:22.691Z,81.20
2017-04-04T00:43:21.213Z,81.60
2017-04-04T00:44:20.895Z,81.70
2017-04-04T00:45:19.368Z,81.50
2017-04-04T00:46:18.622Z,81.90
2017-04-04T00:47:17.882Z,82.10
2017-04-04T00:48:17.141Z,81.70
2017-04-04T00:49:16.180Z,81.60
2017-04-04T00:50:16.457Z,82.40
2017-04-04T00:51:14.997Z,82.20
2017-04-04T00:52:14.249Z,82.10
2017-04-04T00:53:13.492Z,81.70
2017-04-04T00:54:11.993Z,81.60
2017-04-04T00:55:10.497Z,81.80
2017-04-04T00:56:09.404Z,81.20
2017-04-04T00:57:07.860Z,81.70
2017-04-04T00:58:06.340Z,81.80
2017-04-04T00:59:04.817Z,81.60
2017-04-04T01:00:04.841Z,82.10
2017-04-04T01:01:04.097Z,82.40
2017-04-04T01:02:02.908Z,82.40
2017-04-04T01:03:02.143Z,81.90
2017-04-04T01:04:01.427Z,81.90
2017-04-04T01:04:59.897Z,81.90
2017-04-04T01:05:59.959Z,82.00
2017-04-04T01:06:58.488Z,81.90
2017-04-04T01:07:58.081Z,82.90
2017-04-04T01:08:57.327Z,82.90
2017-04-04T01:09:55.808Z,82.90
2017-04-04T01:10:54.300Z,82.80
2017-04-04T01:11:53.633Z,83.10
2017-04-04T01:12:52.889Z,83.30
2017-04-04T01:13:52.504Z,83.40
2017-04-04T01:14:51.272Z,83.30
2017-04-04T01:15:49.740Z,83.20
2017-04-04T01:16:48.240Z,83.70
2017-04-04T01:17:46.695Z,84.20
2017-04-04T01:18:45.170Z,84.60
2017-04-04T01:19:44.124Z,84.50
2017-04-04T01:20:42.613Z,84.40
2017-04-04T01:21:41.089Z,84.40
2017-04-04T01:22:40.325Z,84.60
2017-04-04T01:23:38.802Z,84.50
2017-04-04T01:24:38.083Z,84.80
2017-04-04T01:25:36.857Z,84.80
2017-04-04T01:26:35.332Z,84.80
2017-04-04T01:27:34.573Z,85.60
2017-04-04T01:28:33.031Z,85.60
2017-04-04T01:29:31.516Z,85.80
2017-04-04T01:30:30.001Z,85.70
2017-04-04T01:31:28.870Z,85.80
2017-04-04T01:32:27.325Z,85.70
2017-04-04T01:33:25.785Z,85.90
2017-04-04T01:34:24.266Z,86.20
2017-04-04T01:35:22.733Z,86.00
2017-04-04T01:36:21.271Z,86.10
2017-04-04T01:37:20.083Z,86.30
2017-04-04T01:38:18.557Z,86.30
2017-04-04T01:39:17.168Z,86.50
2017-04-04T01:40:16.424Z,86.70
2017-04-04T01:41:15.684Z,86.80
2017-04-04T01:42:14.917Z,87.00
2017-04-04T01:43:13.832Z,87.00
2017-04-04T01:44:13.071Z,87.60
2017-04-04T01:45:11.592Z,87.60
2017-04-04T01:46:10.088Z,87.90
2017-04-04T01:47:09.353Z,88.00
2017-04-04T01:48:07.855Z,87.80
2017-04-04T01:49:06.765Z,88.00
2017-04-04T01:50:06.089Z,88.80
2017-04-04T01:51:05.372Z,88.00
2017-04-04T01:52:04.626Z,88.10
2017-04-04T01:53:03.133Z,88.00
2017-04-04T01:54:02.389Z,88.20
2017-04-04T01:55:02.773Z,87.70
2017-04-04T01:56:01.241Z,87.60
2017-04-04T01:56:59.700Z,87.60
2017-04-04T01:57:58.181Z,87.60
2017-04-04T01:58:56.641Z,87.30
2017-04-04T01:59:55.992Z,87.10
2017-04-04T02:00:54.758Z,87.10
2017-04-04T02:01:53.996Z,87.40
2017-04-04T02:02:52.514Z,87.40
2017-04-04T02:03:51.008Z,87.50
2017-04-04T02:04:50.321Z,87.70
2017-04-04T02:05:49.584Z,87.80
2017-04-04T02:06:49.184Z,88.40
2017-04-04T02:07:47.663Z,88.40
2017-04-04T02:08:46.188Z,88.50
2017-04-04T02:09:44.828Z,88.50
2017-04-04T02:10:44.069Z,88.70
2017-04-04T02:11:42.556Z,88.60
2017-04-04T02:12:42.101Z,88.80
2017-04-04T02:13:40.560Z,88.80
2017-04-04T02:14:39.041Z,88.90
2017-04-04T02:15:37.519Z,88.90
2017-04-04T02:16:36.001Z,89.00
2017-04-04T02:17:34.454Z,88.90
2017-04-04T02:18:33.308Z,88.70
2017-04-04T02:19:32.625Z,88.90
2017-04-04T02:20:31.885Z,89.10
2017-04-04T02:21:31.133Z,89.30
2017-04-04T02:22:30.388Z,89.70
2017-04-04T02:23:29.661Z,89.70
2017-04-04T02:24:29.191Z,90.40
2017-04-04T02:25:27.677Z,89.80
2017-04-04T02:26:26.154Z,89.60
2017-04-04T02:27:25.418Z,90.10
2017-04-04T02:28:24.100Z,90.10
2017-04-04T02:29:22.575Z,90.10
2017-04-04T02:30:21.448Z,90.10
2017-04-04T02:31:20.043Z,90.20
2017-04-04T02:32:19.289Z,90.10
2017-04-04T02:33:17.757Z,89.80
2017-04-04T02:34:16.239Z,89.60
2017-04-04T02:35:15.555Z,89.70
2017-04-04T02:36:15.093Z,88.80
2017-04-04T02:37:14.354Z,88.70
2017-04-04T02:38:13.677Z,88.50
2017-04-04T02:39:12.166Z,88.50
2017-04-04T02:41:52.091Z,88.70
2017-04-04T02:45:38.403Z,89.00
2017-04-04T02:46:37.678Z,89.20
2017-04-04T02:47:36.493Z,89.20
2017-04-04T02:48:35.769Z,89.00
2017-04-04T02:49:34.318Z,88.90
2017-04-04T02:50:32.877Z,88.70
2017-04-04T02:51:31.339Z,88.80
2017-04-04T02:52:30.600Z,88.80
2017-04-04T02:53:29.453Z,88.80
2017-04-04T02:54:27.917Z,88.70
2017-04-04T02:55:26.469Z,88.40
2017-04-04T02:56:25.704Z,88.10
2017-04-04T02:57:24.950Z,88.00
2017-04-04T02:58:24.173Z,87.90
2017-04-04T02:59:23.739Z,88.30
2017-04-04T03:00:22.212Z,88.30
2017-04-04T03:01:27.297Z,88.20
2017-04-04T03:02:26.555Z,88.50
2017-04-04T03:03:25.848Z,88.80
2017-04-04T03:04:25.457Z,88.60
2017-04-04T03:05:24.689Z,88.10
2017-04-04T03:06:23.917Z,88.30
2017-04-04T03:07:22.370Z,88.30
2017-04-04T03:08:20.832Z,88.60
2017-04-04T03:09:20.077Z,89.30
2017-04-04T03:10:18.915Z,89.30
2017-04-04T03:11:17.449Z,88.80
2017-04-04T03:12:15.924Z,89.00
2017-04-04T03:13:14.401Z,89.40
2017-04-04T03:14:12.903Z,89.60
2017-04-04T03:15:12.253Z,90.00
2017-04-04T03:16:11.028Z,89.30
2017-04-04T03:17:09.500Z,89.50
2017-04-04T03:18:08.305Z,89.60
2017-04-04T03:19:06.773Z,89.30
2017-04-04T03:20:06.008Z,90.20
2017-04-04T03:21:04.464Z,90.10
2017-04-04T03:22:03.239Z,90.50
2017-04-04T03:23:02.468Z,90.50
2017-04-04T03:24:00.928Z,90.60
2017-04-04T03:24:59.388Z,90.50
2017-04-04T03:25:57.900Z,90.30
2017-04-04T03:26:56.354Z,90.70
2017-04-04T03:27:55.982Z,91.20
2017-04-04T03:28:54.435Z,91.20
2017-04-04T03:29:53.038Z,91.10
2017-04-04T03:30:51.531Z,91.20
2017-04-04T03:31:49.988Z,91.00
2017-04-04T03:32:48.440Z,91.20
2017-04-04T03:33:47.285Z,91.20
2017-04-04T03:34:45.756Z,91.20
2017-04-04T03:35:44.956Z,91.10
2017-04-04T03:36:44.920Z,91.10
2017-04-04T03:37:44.153Z,90.80
2017-04-04T03:38:43.405Z,90.90
2017-04-04T03:39:42.197Z,90.60
2017-04-04T03:40:40.660Z,91.00
2017-04-04T03:41:39.108Z,90.90
2017-04-04T03:42:38.332Z,91.20
2017-04-04T03:43:37.556Z,91.40
2017-04-04T03:44:36.036Z,91.40
2017-04-04T03:45:35.018Z,91.60
2017-04-04T03:46:33.484Z,91.60
2017-04-04T03:47:31.945Z,91.90
2017-04-04T03:48:30.400Z,91.60
2017-04-04T03:49:28.856Z,91.30
2017-04-04T03:50:28.104Z,91.60
2017-04-04T03:51:27.736Z,91.10
2017-04-04T03:52:26.188Z,91.10
2017-04-04T03:53:24.668Z,91.00
2017-04-04T03:54:23.885Z,91.00
2017-04-04T03:55:22.340Z,91.00
2017-04-04T03:56:20.834Z,91.20
2017-04-04T03:57:20.369Z,91.30
2017-04-04T03:58:20.643Z,91.20
2017-04-04T03:59:19.864Z,91.20
2017-04-04T04:00:19.081Z,91.80
2017-04-04T04:01:18.304Z,91.70
2017-04-04T04:02:16.781Z,91.70
2017-04-04T04:03:15.662Z,91.80
2017-04-04T04:04:14.115Z,91.70
2017-04-04T04:05:13.340Z,91.60
2017-04-04T04:06:11.844Z,91.60
2017-04-04T04:07:10.382Z,91.80
2017-04-04T04:08:08.851Z,91.90
2017-04-04T04:09:08.380Z,92.50
2017-04-04T04:10:06.975Z,92.30
2017-04-04T04:11:05.544Z,92.30
2017-04-04T04:12:04.032Z,92.30
2017-04-04T04:13:03.479Z,92.10
2017-04-04T04:14:02.088Z,92.10
2017-04-04T04:15:00.928Z,92.00
2017-04-04T04:15:59.480Z,91.90
2017-04-04T04:16:58.803Z,92.00
2017-04-04T04:17:57.277Z,92.00
2017-04-04T04:18:55.745Z,92.20
2017-04-04T04:19:54.408Z,93.10
2017-04-04T04:20:54.804Z,94.10
2017-04-04T04:21:53.272Z,94.00
2017-04-04T04:22:53.431Z,93.40
2017-04-04T04:23:52.066Z,93.40
2017-04-04T04:24:50.677Z,93.60
2017-04-04T04:25:49.149Z,93.50
2017-04-04T04:26:48.700Z,93.70
2017-04-04T04:27:48.056Z,94.00
2017-04-04T04:28:46.672Z,93.90
2017-04-04T04:29:45.908Z,95.10
2017-04-04T04:30:44.493Z,95.10
2017-04-04T04:31:43.963Z,95.10
2017-04-04T04:32:42.891Z,95.10
2017-04-04T04:33:41.488Z,95.20
2017-04-04T04:34:40.068Z,95.60
2017-04-04T04:35:39.583Z,96.20
2017-04-04T04:36:39.257Z,96.80
2017-04-04T04:37:37.904Z,96.80
2017-04-04T04:38:36.912Z,96.80
2017-04-04T04:39:36.472Z,97.00
2017-04-04T04:40:35.092Z,97.00
2017-04-04T04:41:34.549Z,97.90
2017-04-04T04:42:33.346Z,97.90
2017-04-04T04:43:32.739Z,98.00
2017-04-04T04:44:32.648Z,98.20
2017-04-04T04:45:31.317Z,98.20
2017-04-04T04:46:31.040Z,98.30
2017-04-04T04:47:29.691Z,98.30
2017-04-04T04:48:28.392Z,98.30
2017-04-04T04:49:27.219Z,98.90
2017-04-04T04:50:26.229Z,98.80
2017-04-04T04:51:24.946Z,98.70
2017-04-04T04:52:24.348Z,97.80
2017-04-04T04:53:23.817Z,98.70
2017-04-04T04:54:24.524Z,99.00
2017-04-04T04:55:23.145Z,99.00
2017-04-04T04:56:22.301Z,98.90
2017-04-04T04:57:21.584Z,99.50
2017-04-04T04:58:20.816Z,99.90
2017-04-04T04:59:20.114Z,99.90
2017-04-04T05:00:18.633Z,99.90
2017-04-04T05:01:17.348Z,99.90
2017-04-04T05:02:16.217Z,99.90
2017-04-04T05:03:15.459Z,99.90
2017-04-04T05:04:14.724Z,99.90
2017-04-04T05:05:14.289Z,99.90
2017-04-04T05:06:12.801Z,99.90
2017-04-04T05:07:12.036Z,99.90
2017-04-04T05:08:10.897Z,99.90
2017-04-04T05:09:09.367Z,99.90
2017-04-04T05:10:07.840Z,99.90
2017-04-04T05:11:06.297Z,99.90
2017-04-04T05:12:04.749Z,99.90
2017-04-04T05:13:03.768Z,99.90
2017-04-04T05:14:03.326Z,99.90
2017-04-04T05:15:01.822Z,99.90
2017-04-04T05:16:01.138Z,99.90
2017-04-04T05:16:59.656Z,99.90
2017-04-04T05:17:59.552Z,99.90
2017-04-04T05:18:58.032Z,99.90
2017-04-04T05:19:56.868Z,99.90
2017-04-04T05:20:56.105Z,99.90
2017-04-04T05:21:55.323Z,99.90
2017-04-04T05:22:54.548Z,99.90
2017-04-04T05:23:53.022Z,99.90
2017-04-04T05:24:51.476Z,99.90
2017-04-04T05:25:50.262Z,99.90
2017-04-04T05:26:49.488Z,99.90
2017-04-04T05:27:48.711Z,99.90
2017-04-04T05:28:47.172Z,99.90
2017-04-04T05:29:47.183Z,99.90
2017-04-04T05:30:45.699Z,99.90
2017-04-04T05:31:44.489Z,99.90
2017-04-04T05:32:43.748Z,99.90
2017-04-04T05:33:42.989Z,99.90
2017-04-04T05:34:42.244Z,99.90
2017-04-04T05:35:41.482Z,99.90
2017-04-04T05:36:40.708Z,99.90
2017-04-04T05:37:39.575Z,99.90
2017-04-04T05:38:38.035Z,99.90
2017-04-04T05:39:37.306Z,99.90
2017-04-04T05:40:35.860Z,99.90
2017-04-04T05:41:34.361Z,99.90
2017-04-04T05:42:32.830Z,99.90
2017-04-04T05:43:32.420Z,99.90
2017-04-04T05:44:30.889Z,99.90
2017-04-04T05:45:29.357Z,99.90
2017-04-04T05:46:27.988Z,99.90
2017-04-04T05:47:26.481Z,99.90
2017-04-04T05:48:24.972Z,99.90
2017-04-04T05:49:23.825Z,99.90
2017-04-04T05:50:22.310Z,99.90
2017-04-04T05:51:20.817Z,99.90
2017-04-04T05:52:19.296Z,99.90
2017-04-04T05:53:17.805Z,99.90
2017-04-04T05:54:17.873Z,99.90
2017-04-04T05:55:16.660Z,99.90
2017-04-04T05:56:15.149Z,99.90
2017-04-04T05:57:15.189Z,99.90
2017-04-04T05:58:13.656Z,99.90
2017-04-04T05:59:12.122Z,99.90
2017-04-04T06:00:10.636Z,99.90
2017-04-04T06:01:10.209Z,99.90
2017-04-04T06:02:08.700Z,99.90
2017-04-04T06:03:07.169Z,99.90
2017-04-04T06:04:05.639Z,99.90
2017-04-04T06:05:04.165Z,99.90
2017-04-04T06:06:03.069Z,99.90
2017-04-04T06:07:01.930Z,99.90
2017-04-04T06:08:01.189Z,99.90
2017-04-04T06:08:59.685Z,99.90
2017-04-04T06:09:58.160Z,99.90
2017-04-04T06:10:56.690Z,99.90
2017-04-04T06:11:55.161Z,99.90
2017-04-04T06:12:53.942Z,99.90
2017-04-04T06:13:52.851Z,99.90
2017-04-04T06:14:51.343Z,99.90
2017-04-04T06:15:49.832Z,99.90
2017-04-04T06:16:48.322Z,99.90
2017-04-04T06:17:47.563Z,99.90
2017-04-04T06:18:46.336Z,99.90
2017-04-04T06:19:44.822Z,99.90
2017-04-04T06:20:43.312Z,99.90
2017-04-04T06:21:41.897Z,99.90
2017-04-04T06:22:41.132Z,99.90
2017-04-04T06:23:39.605Z,99.90
2017-04-04T06:24:38.380Z,99.90
2017-04-04T06:25:37.621Z,99.90
2017-04-04T06:26:36.561Z,99.90
2017-04-04T06:27:35.056Z,99.90
2017-04-04T06:28:34.289Z,99.90
2017-04-04T06:29:32.761Z,99.90
2017-04-04T06:30:31.632Z,99.90
2017-04-04T06:31:30.920Z,99.90
2017-04-04T06:32:29.427Z,99.90
2017-04-04T06:33:28.665Z,99.90
2017-04-04T06:34:27.159Z,99.90
2017-04-04T06:35:26.419Z,99.90
2017-04-04T06:36:26.713Z,99.90
2017-04-04T06:37:25.990Z,99.90
2017-04-04T06:38:24.465Z,99.90
2017-04-04T06:39:23.931Z,99.90
2017-04-04T06:40:22.421Z,99.90
2017-04-04T06:41:20.953Z,99.90
2017-04-04T06:42:20.573Z,99.90
2017-04-04T06:43:19.044Z,99.90
2017-04-04T06:44:17.532Z,99.90
2017-04-04T06:45:16.008Z,99.90
2017-04-04T06:46:15.259Z,99.90
2017-04-04T06:47:13.765Z,99.90
2017-04-04T06:48:13.362Z,99.90
2017-04-04T06:49:12.580Z,99.90
2017-04-04T06:50:11.078Z,99.90
2017-04-04T06:51:09.544Z,99.90
2017-04-04T06:52:08.101Z,99.90
2017-04-04T06:53:07.353Z,99.90
2017-04-04T06:54:06.146Z,99.90
2017-04-04T06:55:05.390Z,99.90
2017-04-04T06:56:03.864Z,99.90
2017-04-04T06:57:02.389Z,99.90
2017-04-04T06:58:00.874Z,99.90
2017-04-04T06:59:00.097Z,99.90
2017-04-04T06:59:58.882Z,99.90
2017-04-04T07:00:57.357Z,99.90
2017-04-04T07:01:55.866Z,99.90
2017-04-04T07:02:55.129Z,99.90
2017-04-04T07:03:54.386Z,99.90
2017-04-04T07:04:52.848Z,99.90
2017-04-04T07:05:51.753Z,99.90
2017-04-04T07:06:51.020Z,99.90
2017-04-04T07:07:49.528Z,99.90
2017-04-04T07:08:48.776Z,99.90
2017-04-04T07:09:47.242Z,99.90
2017-04-04T07:10:46.493Z,99.90
2017-04-04T07:11:46.016Z,99.90
2017-04-04T07:12:45.049Z,99.90
2017-04-04T07:13:44.302Z,99.90
2017-04-04T07:14:43.567Z,99.90
2017-04-04T07:15:42.805Z,99.90
2017-04-04T07:16:41.293Z,99.90
2017-04-04T07:17:40.158Z,99.90
2017-04-04T07:18:38.644Z,99.90
2017-04-04T07:19:38.654Z,99.90
2017-04-04T07:20:38.061Z,99.90
2017-04-04T07:21:37.313Z,99.90
2017-04-04T07:22:35.828Z,99.90
2017-04-04T07:23:35.457Z,99.90
2017-04-04T07:24:34.710Z,99.90
2017-04-04T07:25:33.984Z,99.90
2017-04-04T07:26:32.440Z,99.90
2017-04-04T07:27:30.920Z,99.90
2017-04-04T07:28:29.397Z,99.90
2017-04-04T07:29:28.157Z,99.90
2017-04-04T07:30:26.665Z,99.90
2017-04-04T07:31:25.177Z,99.90
2017-04-04T07:32:23.648Z,99.90
2017-04-04T07:33:22.161Z,99.90
2017-04-04T07:34:20.628Z,99.90
2017-04-04T07:35:19.481Z,99.90
2017-04-04T07:36:17.942Z,99.90
2017-04-04T07:37:17.189Z,99.90
2017-04-04T07:38:15.664Z,99.90
2017-04-04T07:39:15.429Z,99.90
2017-04-04T07:40:14.660Z,99.90
2017-04-04T07:41:13.440Z,99.90
2017-04-04T07:42:12.690Z,99.90
2017-04-04T07:43:11.964Z,99.90
2017-04-04T07:44:11.209Z,99.90
2017-04-04T07:45:09.668Z,99.90
2017-04-04T07:46:08.146Z,99.90
2017-04-04T07:47:08.413Z,99.90
2017-04-04T07:48:06.933Z,99.90
2017-04-04T07:49:05.411Z,99.90
2017-04-04T07:50:04.709Z,99.90
2017-04-04T07:51:03.184Z,99.90
2017-04-04T07:52:01.711Z,99.90
2017-04-04T07:53:01.271Z,99.90
2017-04-04T07:54:00.518Z,99.90
2017-04-04T07:54:59.015Z,99.90
2017-04-04T07:55:57.503Z,99.90
2017-04-04T07:56:55.992Z,99.90
2017-04-04T07:57:55.252Z,99.90
2017-04-04T07:58:54.821Z,99.90
2017-04-04T07:59:53.300Z,99.90
2017-04-04T08:00:51.778Z,99.90
2017-04-04T08:01:51.068Z,99.90
2017-04-04T08:02:50.325Z,99.90
2017-04-04T08:03:48.808Z,99.90
2017-04-04T08:04:49.095Z,99.90
2017-04-04T08:05:48.326Z,99.90
2017-04-04T08:06:47.567Z,99.90
2017-04-04T08:07:46.038Z,99.90
2017-04-04T08:08:44.512Z,99.90
2017-04-04T08:09:42.992Z,99.90
2017-04-04T08:10:42.502Z,99.90
2017-04-04T08:11:40.981Z,99.90
2017-04-04T08:12:39.452Z,99.90
2017-04-04T08:13:37.925Z,99.90
2017-04-04T08:14:36.400Z,99.90
2017-04-04T08:15:34.903Z,99.90
2017-04-04T08:16:34.565Z,99.90
2017-04-04T08:17:33.037Z,99.90
2017-04-04T08:18:32.260Z,99.90
2017-04-04T08:19:31.510Z,99.90
2017-04-04T08:20:29.981Z,99.90
2017-04-04T08:21:28.452Z,99.90
2017-04-04T08:22:28.004Z,99.90
2017-04-04T08:23:26.476Z,99.90
2017-04-04T08:24:25.704Z,99.90
2017-04-04T08:25:24.946Z,99.90
2017-04-04T08:26:24.213Z,99.90
2017-04-04T08:27:22.689Z,99.90
2017-04-04T08:28:21.456Z,99.90
2017-04-04T08:29:19.945Z,99.90
2017-04-04T08:30:18.452Z,99.90
2017-04-04T08:31:16.928Z,99.90
2017-04-04T08:32:16.208Z,99.90
2017-04-04T08:33:14.719Z,99.90
2017-04-04T08:34:13.489Z,99.90
2017-04-04T08:35:12.121Z,99.90
2017-04-04T08:36:10.623Z,99.90
2017-04-04T08:37:10.622Z,99.90
2017-04-04T08:38:09.088Z,99.90
2017-04-04T08:39:07.576Z,99.90
2017-04-04T08:40:07.232Z,99.90
2017-04-04T08:41:06.486Z,99.90
2017-04-04T08:42:04.985Z,99.90
2017-04-04T08:43:03.470Z,99.90
2017-04-04T08:44:01.940Z,99.90
2017-04-04T08:45:00.446Z,99.90
2017-04-04T08:46:00.070Z,99.90
2017-04-04T08:46:58.573Z,99.90
2017-04-04T08:47:57.845Z,99.90
2017-04-04T08:48:56.292Z,99.90
2017-04-04T08:49:54.749Z,99.90
2017-04-04T08:50:53.209Z,99.90
2017-04-04T08:51:52.798Z,99.90
2017-04-04T08:52:52.033Z,99.90
2017-04-04T08:53:51.273Z,99.90
2017-04-04T08:54:49.756Z,99.90
2017-04-04T08:55:49.743Z,99.90
2017-04-04T08:56:48.240Z,99.90
2017-04-04T08:57:47.875Z,99.90
2017-04-04T08:58:46.345Z,99.90
2017-04-04T08:59:44.808Z,99.90
2017-04-04T09:00:43.277Z,99.90
2017-04-04T09:01:42.604Z,99.90
2017-04-04T09:02:41.856Z,99.90
2017-04-04T09:03:40.640Z,99.90
2017-04-04T09:04:40.655Z,99.90
2017-04-04T09:05:39.902Z,99.90
2017-04-04T09:06:38.380Z,99.90
2017-04-04T09:07:36.873Z,99.90
2017-04-04T09:08:36.180Z,99.90
2017-04-04T09:09:35.813Z,99.90
2017-04-04T09:10:35.064Z,99.90
2017-04-04T09:11:33.564Z,99.90
2017-04-04T09:12:32.026Z,99.90
2017-04-04T09:13:31.512Z,99.90
2017-04-04T09:14:29.994Z,99.90
2017-04-04T09:15:28.860Z,99.90
2017-04-04T09:16:27.337Z,99.90
2017-04-04T09:17:25.817Z,99.90
2017-04-04T09:18:25.057Z,99.90
2017-04-04T09:19:24.316Z,99.90
2017-04-04T09:20:23.567Z,99.90
2017-04-04T09:21:22.408Z,99.90
2017-04-04T09:22:20.881Z,99.90
2017-04-04T09:23:19.346Z,99.90
2017-04-04T09:24:17.813Z,99.90
2017-04-04T09:25:16.308Z,99.90
2017-04-04T09:26:15.539Z,99.90
2017-04-04T09:27:14.321Z,99.90
2017-04-04T09:28:12.776Z,99.90
2017-04-04T09:29:12.037Z,99.90
2017-04-04T09:30:11.301Z,99.90
2017-04-04T09:31:10.606Z,99.90
2017-04-04T09:32:09.100Z,99.90
2017-04-04T09:33:07.884Z,99.90
2017-04-04T09:34:06.369Z,99.90
2017-04-04T09:35:04.915Z,99.90
2017-04-04T09:36:03.397Z,99.90
2017-04-04T09:37:01.886Z,99.90
2017-04-04T09:38:01.117Z,99.90
2017-04-04T09:39:00.712Z,99.90
2017-04-04T09:39:59.164Z,99.90
2017-04-04T09:40:57.629Z,99.90
2017-04-04T09:41:56.887Z,99.90
2017-04-04T09:42:55.387Z,99.90
2017-04-04T09:43:53.840Z,99.90
2017-04-04T09:44:52.631Z,99.90
2017-04-04T09:45:51.117Z,99.90
2017-04-04T09:46:50.354Z,99.90
2017-04-04T09:47:49.609Z,99.90
2017-04-04T09:48:48.877Z,99.90
2017-04-04T09:49:48.110Z,99.90
2017-04-04T09:50:47.689Z,99.90
2017-04-04T09:51:46.206Z,99.90
2017-04-04T09:52:44.692Z,99.90
2017-04-04T09:53:43.929Z,99.90
2017-04-04T09:54:42.451Z,99.90
2017-04-04T09:55:41.697Z,99.90
2017-04-04T09:56:40.454Z,99.90
2017-04-04T09:57:38.950Z,99.90
2017-04-04T09:58:38.211Z,99.90
2017-04-04T09:59:37.449Z,99.90
2017-04-04T10:00:35.979Z,99.90
2017-04-04T10:01:34.479Z,99.90
2017-04-04T10:02:33.288Z,99.90
2017-04-04T10:03:31.779Z,99.90
2017-04-04T10:04:30.246Z,99.90
2017-04-04T10:05:29.503Z,99.90
2017-04-04T10:06:28.740Z,99.90
2017-04-04T10:07:27.220Z,99.90
2017-04-04T10:08:26.014Z,99.90
2017-04-04T10:09:24.518Z,99.90
2017-04-04T10:10:23.765Z,99.90
2017-04-04T10:11:22.249Z,99.90
2017-04-04T10:12:20.748Z,99.90
2017-04-04T10:13:19.233Z,99.90
2017-04-04T10:14:18.037Z,99.90
2017-04-04T10:15:16.777Z,99.90
2017-04-04T10:16:15.267Z,99.90
2017-04-04T10:17:14.529Z,99.90
2017-04-04T10:18:13.785Z,99.90
2017-04-04T10:19:13.045Z,99.90
2017-04-04T10:20:11.897Z,99.90
2017-04-04T10:21:11.152Z,99.90
2017-04-04T10:22:10.389Z,99.90
2017-04-04T10:23:10.373Z,99.90
2017-04-04T10:24:08.838Z,99.90
2017-04-04T10:25:08.142Z,99.90
2017-04-04T10:26:07.657Z,99.90
2017-04-04T10:27:06.900Z,99.90
2017-04-04T10:28:05.377Z,99.90
2017-04-04T10:29:03.845Z,99.90
2017-04-04T10:30:03.079Z,99.90
2017-04-04T10:31:01.557Z,99.90
2017-04-04T10:32:01.145Z,99.90
2017-04-04T10:33:00.369Z,99.90
2017-04-04T10:33:59.608Z,99.90
2017-04-04T10:34:58.076Z,99.90
2017-04-04T10:35:56.552Z,99.90
2017-04-04T10:36:55.039Z,99.90
2017-04-04T10:37:54.574Z,99.90
2017-04-04T10:38:53.040Z,99.90
2017-04-04T10:39:51.513Z,99.90
2017-04-04T10:40:50.791Z,99.90
2017-04-04T10:41:49.268Z,99.90
2017-04-04T10:42:47.728Z,99.90
2017-04-04T10:43:46.521Z,99.90
2017-04-04T10:44:45.021Z,99.90
2017-04-04T10:45:44.286Z,99.90
2017-04-04T10:46:42.772Z,99.90
2017-04-04T10:47:42.004Z,99.90
2017-04-04T10:48:40.481Z,99.90
2017-04-04T10:49:39.361Z,99.90
2017-04-04T10:50:38.620Z,99.90
2017-04-04T10:51:37.117Z,99.90
2017-04-04T10:52:35.588Z,99.90
2017-04-04T10:53:34.865Z,99.90
2017-04-04T10:54:33.373Z,99.90
2017-04-04T10:55:33.009Z,99.90
2017-04-04T10:56:31.519Z,99.90
2017-04-04T10:57:30.758Z,99.90
2017-04-04T10:58:29.238Z,99.90
2017-04-04T10:59:28.484Z,99.90
2017-04-04T11:00:27.010Z,99.90
2017-04-04T11:01:26.564Z,99.90
2017-04-04T11:02:25.093Z,99.90
2017-04-04T11:03:24.343Z,99.90
2017-04-04T11:04:23.655Z,99.90
2017-04-04T11:05:22.909Z,99.90
2017-04-04T11:06:21.389Z,99.90
2017-04-04T11:07:21.859Z,99.90
2017-04-04T11:08:20.378Z,99.90
2017-04-04T11:09:19.621Z,99.90
2017-04-04T11:10:18.097Z,99.90
2017-04-04T11:11:16.580Z,99.90
2017-04-04T11:12:15.877Z,99.90
2017-04-04T11:13:15.508Z,99.90
2017-04-04T11:14:14.004Z,99.90
2017-04-04T11:15:13.254Z,99.90
2017-04-04T11:16:11.724Z,99.90
2017-04-04T11:17:11.005Z,99.90
2017-04-04T11:18:09.489Z,99.90
2017-04-04T11:19:08.275Z,99.90
2017-04-04T11:20:07.554Z,99.90
2017-04-04T11:21:06.033Z,99.90
2017-04-04T11:22:05.330Z,99.90
2017-04-04T11:23:03.860Z,99.90
2017-04-04T11:24:02.348Z,99.90
2017-04-04T11:25:01.894Z,99.90
2017-04-04T11:26:00.381Z,99.90
2017-04-04T11:26:59.623Z,99.90
2017-04-04T11:27:58.084Z,99.90
2017-04-04T11:28:56.572Z,99.90
2017-04-04T11:29:55.112Z,99.90
2017-04-04T11:30:54.019Z,99.90
2017-04-04T11:31:52.528Z,99.90
2017-04-04T11:32:51.765Z,99.90
2017-04-04T11:33:50.251Z,99.90
2017-04-04T11:34:49.512Z,99.90
2017-04-04T11:35:48.041Z,99.90
2017-04-04T11:36:47.673Z,99.90
2017-04-04T11:37:46.135Z,99.90
2017-04-04T11:38:44.684Z,99.90
2017-04-04T11:39:43.929Z,99.90
2017-04-04T11:40:43.203Z,99.90
2017-04-04T11:41:41.704Z,99.90
2017-04-04T11:42:40.649Z,99.90
2017-04-04T11:43:39.136Z,99.90
2017-04-04T11:44:38.372Z,99.90
2017-04-04T11:45:37.607Z,99.90
2017-04-04T11:46:36.098Z,99.90
2017-04-04T11:47:34.589Z,99.90
2017-04-04T11:48:33.357Z,99.90
2017-04-04T11:49:31.831Z,99.90
2017-04-04T11:50:30.345Z,99.90
2017-04-04T11:51:28.816Z,99.90
2017-04-04T11:52:27.364Z,99.90
2017-04-04T11:53:26.685Z,99.90
2017-04-04T11:54:26.285Z,99.90
2017-04-04T11:55:24.753Z,99.90
2017-04-04T11:56:23.255Z,99.90
2017-04-04T11:57:22.510Z,99.90
2017-04-04T11:58:21.001Z,99.90
2017-04-04T11:59:20.281Z,99.90
2017-04-04T12:00:19.832Z,99.90
2017-04-04T12:01:18.301Z,99.90
2017-04-04T12:02:16.772Z,99.90
2017-04-04T12:03:15.282Z,99.90
2017-04-04T12:04:14.533Z,99.90
2017-04-04T12:05:13.119Z,99.90
2017-04-04T12:06:11.953Z,99.90
2017-04-04T12:07:10.449Z,99.90
2017-04-04T12:08:10.473Z,99.90
2017-04-04T12:09:09.726Z,99.80
2017-04-04T12:10:08.225Z,99.80
2017-04-04T12:11:06.712Z,99.30
2017-04-04T12:12:05.520Z,98.30
2017-04-04T12:13:03.991Z,98.20
2017-04-04T12:14:02.498Z,99.70
2017-04-04T12:15:00.973Z,99.90
2017-04-04T12:16:00.248Z,99.90
2017-04-04T12:16:59.467Z,99.90
2017-04-04T12:17:58.300Z,99.90
2017-04-04T12:18:57.553Z,97.90
2017-04-04T12:19:57.547Z,99.90
2017-04-04T12:20:56.026Z,99.90
2017-04-04T12:21:54.546Z,99.90
2017-04-04T12:22:53.049Z,98.30
2017-04-04T12:23:51.899Z,98.80
2017-04-04T12:24:50.373Z,99.30
2017-04-04T12:25:48.861Z,99.60
2017-04-04T12:26:47.374Z,99.90
2017-04-04T12:27:45.865Z,99.90
2017-04-04T12:28:45.216Z,99.90
2017-04-04T12:29:44.123Z,99.90
2017-04-04T12:30:43.407Z,99.90
2017-04-04T12:31:41.877Z,99.90
2017-04-04T12:32:40.353Z,99.90
2017-04-04T12:33:38.863Z,99.90
2017-04-04T12:34:37.404Z,99.90
2017-04-04T12:35:37.778Z,99.90
2017-04-04T12:36:37.056Z,99.90
2017-04-04T12:37:35.541Z,99.90
2017-04-04T12:38:34.012Z,99.90
2017-04-04T12:39:32.492Z,99.90
2017-04-04T12:40:31.792Z,99.90
2017-04-04T12:41:31.361Z,99.90
2017-04-04T12:42:29.839Z,99.90